Kaneohe, HI

05:37 PM HST am 17. September 2014 (GMT -1000)
Keaalau Pt | Change Station
CLOSE
Current Station
Persönliche Wetterstationen
Location: Kaneohe, HI
Höhe: 102 ft
Wetterstationen in der Umgebung

Höhe 102 ft 21.41 °N, 157.77 °W | Updated 13 minutes ago

Light Rain Showers
Leichte Regenschauer
82.2 °F
gefühlte 88 °F
N
2.2
Wind Wechselnd Wind aus Ost

Heute
Max. -- | schwach -- °F
--% Regenrisiko
Gestern
Max. -- | schwach -- °F
Precip. -- inch
6:18 AM 6:32 PM
Letztes Viertel, 30% visible
Druck 29.92 inch
Sichtweite 6.0 Meilen
Wolken Wolkig 2200 ft
Wolkig 2700 ft
Wolkig 3200 ft
Hitzeindex 88 °F
Taupunkt 73 °F
Feuchtigkeit 74%
Regen 0.00 inch
Schneehöhe Nicht verfügbar..
UV 1 von 12
Pollen Nicht verfügbar..
PM2.5 Gut
Flu Activity Nicht verfügbar..
SPECI PHNG 180319Z COR 01009KT 6SM -SHRA BKN022 BKN027 BKN032 28/22 A2992 RMK AO2 P0002 $

More Conditions Fewer Conditions

Druck 29.92 inch
Sichtweite 6.0 Meilen
Wolken Wolkig 2200 ft
Wolkig 2700 ft
Wolkig 3200 ft
Hitzeindex 88 °F
Taupunkt 73 °F
Feuchtigkeit 74%
Regen 0.00 inch
Schneehöhe Nicht verfügbar..
UV 1 von 12
Pollen Nicht verfügbar..
PM2.5 Gut
Flu Activity Nicht verfügbar..
SPECI PHNG 180319Z COR 01009KT 6SM -SHRA BKN022 BKN027 BKN032 28/22 A2992 RMK AO2 P0002 $

More Conditions Fewer Conditions

10-Day Weather Forecast

Almanac

Astronomie

Sep. 17, 2014 Aufgang Untergang
Genaue Zeit 06:18 HST 18:32 HST
Bürgerliche Dämmerung 05:56 HST 18:54 HST
Nautische Dämmerung 05:30 HST 19:20 HST
Astronomische Dämmerung 05:04 HST 19:46 HST
Mond 00:59 HST (9/17) 14:20 HST (9/17)
Länge des sichtbaren Lichts 12h 57m
Tageslänge
12h 13m
Tomorrow will be 1m 13s shorter.
Letztes Viertel, 30% of the Moon is Illuminated
Heute
Letztes Viertel
Sept 24
Neu
Okt 1
Erstes Viertel
Okt 8
Vollmond
Okt 15
Letztes Viertel

Heutige Rekorde

State Highs State Lows

Community

WunderPhotos

Upload Photos

1,754,283 Fotos hochgeladen!

Nearby

Luftqualität

  Luftqualität LQ Index Schadstoff
Gestern Gut
PM10
Aktuell Gut
PM2.5
Mittwoch Gut
OZONE
Donnerstag Gut
OZONE

Schneehöhe

Station Depth Höhe
Kein Neuschnee gemeldet.

Erdbebenaktivität

Stadt Distance Mag. Time & Date
No recent earthquake activity has been reported nearby.
Minimum magnitude displayed is 2.5.

küstennahe Wassertemperaturen

Ort Temperatur
Kein Stationsbericht

Wetterstationen in der Umgebung